Time;durP1;ratioP1;P1;durP2;ratioP2;P2;SDS_P1;SDS_P2;PMS_P1;PMS_P2;Temp;Humidity;BMP_temperature;BMP_pressure;BME280_temperature;BME280_humidity;BME280_pressure;Samples;Min_cycle;Max_cycle;Signal;HPM_P1;HPM_P2
2022/04/13 00:09:21;;;;;;;16.48;5.63;;;15.40;83.30;;;14.26;71.12;100130.22;4983740;28;20065;-79
2022/04/13 00:11:48;;;;;;;15.88;6.68;;;15.40;83.90;;;14.21;71.24;100122.66;4992238;28;20089;-79
2022/04/13 00:14:15;;;;;;;17.23;6.57;;;15.40;84.10;;;14.19;71.35;100135.72;4992722;28;20076;-79
2022/04/13 00:16:43;;;;;;;14.90;6.45;;;15.30;84.30;;;14.16;71.57;100132.56;4991068;28;20074;-79
2022/04/13 00:19:10;;;;;;;16.65;6.82;;;15.30;84.70;;;14.15;72.25;100133.66;4992612;28;20069;-79
2022/04/13 00:21:37;;;;;;;13.75;6.35;;;15.30;85.00;;;14.13;72.14;100130.28;4990847;28;20048;-79
2022/04/13 00:24:06;;;;;;;13.23;6.25;;;15.30;85.20;;;14.10;72.24;100133.44;4992650;28;20038;-79
2022/04/13 00:26:35;;;;;;;12.95;6.25;;;15.20;85.30;;;14.05;72.80;100140.41;4992177;28;20061;-79
2022/04/13 00:29:02;;;;;;;14.15;5.38;;;15.20;85.20;;;14.03;73.28;100139.78;4992612;28;20050;-78
2022/04/13 00:31:29;;;;;;;13.90;6.07;;;15.10;85.40;;;14.01;73.08;100133.69;4992097;28;20050;-79
2022/04/13 00:33:56;;;;;;;12.68;5.03;;;15.10;85.60;;;13.98;73.79;100130.56;4992386;28;20384;-79
2022/04/13 00:36:24;;;;;;;14.77;5.80;;;15.10;86.00;;;13.93;73.96;100136.66;5012140;23;20077;-78
2022/04/13 00:38:51;;;;;;;10.68;5.03;;;15.00;86.00;;;13.91;74.15;100137.94;5011778;28;20133;-78
2022/04/13 00:41:18;;;;;;;10.73;5.60;;;15.00;86.30;;;13.86;74.39;100135.88;5010022;28;20234;-78
2022/04/13 00:44:04;;;;;;;11.20;4.72;;;15.00;86.50;;;13.83;74.86;100142.59;5011927;28;20454;-78
2022/04/13 00:46:32;;;;;;;16.90;5.93;;;15.00;86.90;;;13.79;74.80;100140.50;5002632;28;20049;-78
2022/04/13 00:49:00;;;;;;;12.55;4.90;;;14.90;87.00;;;13.77;74.94;100135.25;4992044;28;20101;-79
2022/04/13 00:51:28;;;;;;;11.15;4.55;;;14.90;86.70;;;13.73;75.40;100142.22;4991934;28;20122;-79
2022/04/13 00:53:58;;;;;;;9.00;4.35;;;14.90;87.10;;;13.69;75.61;100146.44;4992208;28;20109;-78
2022/04/13 00:56:29;;;;;;;9.18;3.95;;;14.90;87.10;;;13.63;75.74;100145.41;4991576;28;20808;-78
2022/04/13 00:59:06;;;;;;;8.27;3.85;;;14.90;87.20;;;13.63;75.68;100144.53;4990988;28;20061;-78
2022/04/13 01:01:37;;;;;;;9.52;3.55;;;14.80;87.20;;;13.59;76.24;100146.84;4991748;28;20054;-78
2022/04/13 01:04:05;;;;;;;7.88;3.45;;;14.80;87.10;;;13.57;75.75;100148.97;4992214;28;20077;-78
2022/04/13 01:06:33;;;;;;;7.30;3.25;;;14.70;87.30;;;13.53;76.24;100153.19;4991560;28;20039;-78
2022/04/13 01:09:00;;;;;;;7.97;3.33;;;14.70;87.50;;;13.48;76.73;100147.53;4991852;28;20136;-78
2022/04/13 01:11:28;;;;;;;9.15;3.63;;;14.70;87.50;;;13.41;77.01;100150.25;4991434;28;20126;-78
2022/04/13 01:13:57;;;;;;;7.50;3.50;;;14.70;87.80;;;13.39;77.12;100162.47;4991914;28;20050;-78
2022/04/13 01:16:25;;;;;;;11.18;4.03;;;14.60;87.90;;;13.34;77.53;100156.78;4991299;28;20042;-79
2022/04/13 01:18:53;;;;;;;7.50;3.17;;;14.60;88.10;;;13.33;77.60;100163.28;4991579;28;20042;-78
2022/04/13 01:21:35;;;;;;;8.70;3.80;;;14.50;88.20;;;13.30;77.64;100165.41;4991281;28;20511;-78
2022/04/13 01:24:05;;;;;;;8.48;3.70;;;14.50;88.30;;;13.25;77.91;100161.56;4991524;28;20124;-78
2022/04/13 01:26:32;;;;;;;9.43;3.75;;;14.50;88.60;;;13.19;78.40;100162.44;4991096;28;20526;-78
2022/04/13 01:28:59;;;;;;;7.85;3.97;;;14.40;88.50;;;13.18;78.49;100166.22;4991550;28;20388;-78
2022/04/13 01:31:27;;;;;;;10.18;4.10;;;14.40;88.90;;;13.16;78.56;100163.69;4991075;28;20054;-78
2022/04/13 01:33:54;;;;;;;7.65;3.90;;;14.40;89.00;;;13.15;78.70;100170.19;4991441;28;20050;-78
2022/04/13 01:36:21;;;;;;;9.35;4.22;;;14.40;89.40;;;13.18;78.93;100178.00;4990778;28;20053;-78
2022/04/13 01:38:48;;;;;;;9.30;4.50;;;14.30;89.70;;;13.19;78.99;100182.38;4991353;28;20525;-78
2022/04/13 01:41:17;;;;;;;12.25;4.85;;;14.30;90.10;;;13.17;79.36;100173.56;4990897;28;20042;-78
2022/04/13 01:43:44;;;;;;;9.52;4.40;;;14.40;89.80;;;13.16;79.38;100184.72;4991354;28;20075;-78
2022/04/13 01:46:11;;;;;;;8.68;4.43;;;14.40;90.10;;;13.15;80.00;100186.59;4991069;28;20062;-79
2022/04/13 01:48:39;;;;;;;11.23;4.65;;;14.30;90.30;;;13.13;80.05;100190.59;4990986;28;20490;-79
2022/04/13 01:51:06;;;;;;;11.30;4.00;;;14.30;90.50;;;13.11;80.71;100193.53;4990703;28;20065;-78
2022/04/13 01:53:35;;;;;;;8.98;3.83;;;14.30;90.60;;;13.10;80.65;100191.88;4991140;28;20133;-78
2022/04/13 01:56:02;;;;;;;12.63;4.50;;;14.30;90.80;;;13.06;80.97;100188.72;4990454;28;20042;-78
2022/04/13 01:58:31;;;;;;;10.55;4.20;;;14.30;90.90;;;13.04;80.70;100185.34;4990846;28;20082;-78
2022/04/13 02:00:59;;;;;;;9.10;4.03;;;14.30;90.80;;;13.01;81.34;100193.94;4990483;28;20454;-78
2022/04/13 02:03:27;;;;;;;9.63;3.67;;;14.30;91.10;;;12.97;81.84;100192.69;4990966;28;20480;-78
2022/04/13 02:05:54;;;;;;;11.68;4.28;;;14.30;91.10;;;12.91;82.27;100191.63;4990471;28;20117;-79
2022/04/13 02:08:22;;;;;;;8.88;3.92;;;14.20;91.20;;;12.85;82.53;100191.59;4990898;28;20046;-78
2022/04/13 02:10:49;;;;;;;7.22;3.72;;;14.20;91.40;;;12.83;82.39;100196.44;4990163;28;20097;-78
2022/04/13 02:13:17;;;;;;;7.43;3.47;;;14.20;91.60;;;12.81;82.71;100199.41;4990926;28;20051;-78
2022/04/13 02:15:45;;;;;;;13.02;4.07;;;14.10;91.50;;;12.75;82.97;100194.75;4990756;28;20109;-78
2022/04/13 02:18:13;;;;;;;7.72;3.97;;;14.10;91.60;;;12.72;83.07;100203.38;4990768;28;20042;-78
2022/04/13 02:20:40;;;;;;;10.05;4.97;;;14.00;91.50;;;12.67;83.34;100211.31;4990265;28;20589;-78
2022/04/13 02:23:07;;;;;;;12.43;5.50;;;14.00;91.60;;;12.65;83.50;100200.59;4990817;28;20050;-78
2022/04/13 02:25:35;;;;;;;9.75;4.45;;;14.00;91.80;;;12.61;83.27;100206.69;4990429;28;20086;-78
2022/04/13 02:28:03;;;;;;;11.70;4.75;;;13.90;91.90;;;12.51;84.00;100199.72;4990116;28;20043;-78
2022/04/13 02:30:30;;;;;;;7.63;4.03;;;13.90;91.70;;;12.45;83.83;100199.69;4989899;28;20505;-78
2022/04/13 02:32:59;;;;;;;11.30;4.40;;;13.90;91.90;;;12.43;84.18;100199.06;4989453;28;20447;-78
2022/04/13 02:35:26;;;;;;;9.20;4.00;;;13.80;92.30;;;12.37;84.49;100197.16;4990654;28;20171;-78
2022/04/13 02:37:53;;;;;;;13.75;5.10;;;13.80;92.40;;;12.36;84.76;100207.25;4989973;28;20069;-78
2022/04/13 02:40:21;;;;;;;10.35;5.03;;;13.70;92.50;;;12.39;83.98;100212.28;4990075;28;20133;-78
2022/04/13 02:42:48;;;;;;;13.48;6.43;;;13.70;92.60;;;12.40;84.00;100211.25;4990557;28;20046;-78
2022/04/13 02:45:15;;;;;;;13.27;6.35;;;13.70;92.40;;;12.37;84.10;100213.53;4990792;28;20089;-78
2022/04/13 02:47:42;;;;;;;11.35;5.70;;;13.70;92.40;;;12.35;84.33;100208.28;4989940;28;20051;-78
2022/04/13 02:50:11;;;;;;;13.73;5.55;;;13.70;92.30;;;12.32;83.73;100205.97;4990028;28;20640;-78
2022/04/13 02:52:39;;;;;;;12.23;5.00;;;13.70;92.20;;;12.30;83.81;100218.97;4990436;28;20057;-78
2022/04/13 02:55:10;;;;;;;10.10;4.50;;;13.70;92.50;;;12.26;84.26;100215.81;4990293;28;20050;-78
2022/04/13 02:57:37;;;;;;;;;;;13.60;92.20;;;12.20;84.18;100215.75;4990382;28;20475;-79
2022/04/13 03:00:06;;;;;;;9.95;4.28;;;13.60;92.30;;;12.13;84.22;100213.84;4989765;28;20402;-78
2022/04/13 03:02:33;;;;;;;9.20;4.15;;;13.50;92.40;;;12.11;84.20;100223.28;4990414;28;20226;-78
2022/04/13 03:05:00;;;;;;;7.53;3.90;;;13.50;92.40;;;12.06;84.65;100223.88;4990176;28;20050;-78
2022/04/13 03:07:30;;;;;;;10.43;3.70;;;13.50;92.40;;;12.04;84.75;100223.25;4989676;28;20053;-78
2022/04/13 03:09:57;;;;;;;9.05;3.58;;;13.50;92.50;;;11.98;84.83;100229.50;4989631;28;20074;-78
2022/04/13 03:12:24;;;;;;;13.07;3.45;;;13.40;92.60;;;11.93;84.92;100230.09;4990350;28;20042;-78
2022/04/13 03:14:52;;;;;;;10.60;3.67;;;13.40;92.80;;;11.86;85.27;100233.78;4990049;28;20047;-78
2022/04/13 03:17:19;;;;;;;9.70;3.60;;;13.30;93.10;;;11.90;85.27;100238.69;4989767;28;20046;-78
2022/04/13 03:19:46;;;;;;;10.50;3.42;;;13.30;93.20;;;11.92;84.98;100239.34;4989726;28;20057;-78
2022/04/13 03:22:13;;;;;;;10.48;3.55;;;13.30;93.20;;;11.95;84.50;100240.81;4991922;28;20050;-78
2022/04/13 03:24:42;;;;;;;4.93;3.03;;;13.30;93.00;;;11.95;84.49;100249.00;4994033;28;20054;-78
2022/04/13 03:27:09;;;;;;;9.10;3.50;;;13.30;92.90;;;11.90;84.54;100246.88;4993398;28;20048;-78
2022/04/13 03:29:36;;;;;;;8.23;3.22;;;13.20;92.80;;;11.89;84.45;100244.31;4993501;28;20130;-79
2022/04/13 03:32:05;;;;;;;8.25;3.53;;;13.20;92.80;;;11.85;84.89;100251.22;4993073;28;20056;-78
2022/04/13 03:34:32;;;;;;;7.65;3.53;;;13.20;92.70;;;11.82;84.75;100254.31;4992481;28;20681;-78
2022/04/13 03:36:59;;;;;;;10.35;3.85;;;13.20;93.00;;;11.79;84.95;100252.00;4992918;28;20038;-78
2022/04/13 03:39:28;;;;;;;8.02;3.45;;;13.20;93.00;;;11.80;84.73;100264.59;4993606;28;20104;-78
2022/04/13 03:41:57;;;;;;;7.45;3.35;;;13.20;93.10;;;11.78;84.79;100262.06;4993143;28;20065;-78
2022/04/13 03:44:24;;;;;;;7.78;3.08;;;13.10;93.20;;;11.77;85.03;100267.72;4993665;28;20046;-78
2022/04/13 03:46:51;;;;;;;9.38;3.45;;;13.10;93.30;;;11.78;84.91;100266.69;4993022;28;20046;-78
2022/04/13 03:49:18;;;;;;;8.50;3.08;;;13.10;93.30;;;11.79;85.06;100276.56;4993403;28;20042;-78
2022/04/13 03:51:46;;;;;;;7.05;3.13;;;13.10;93.60;;;11.79;85.12;100268.38;4991427;28;20114;-78
2022/04/13 03:54:13;;;;;;;9.05;3.33;;;13.10;93.70;;;11.79;85.01;100265.66;4993515;28;20697;-78
2022/04/13 03:56:40;;;;;;;8.90;3.10;;;13.10;93.60;;;11.79;84.72;100273.81;4993236;28;20128;-78
2022/04/13 03:59:09;;;;;;;9.13;3.60;;;13.10;93.70;;;11.81;84.91;100271.75;4993354;28;20039;-78
2022/04/13 04:01:36;;;;;;;8.35;3.17;;;13.10;93.70;;;11.80;84.98;100279.06;4992827;28;20125;-78
2022/04/13 04:04:04;;;;;;;8.23;3.20;;;13.10;93.50;;;11.81;84.84;100279.91;4993248;28;20518;-78
2022/04/13 04:06:31;;;;;;;10.80;3.47;;;13.10;93.50;;;11.84;84.76;100276.78;4992538;28;20081;-78
2022/04/13 04:08:58;;;;;;;7.63;3.13;;;13.10;93.60;;;11.86;84.92;100283.75;4993025;28;20145;-78
2022/04/13 04:11:25;;;;;;;7.28;3.17;;;13.20;93.50;;;11.88;84.76;100283.50;4992431;28;20038;-78
2022/04/13 04:13:53;;;;;;;11.05;3.30;;;13.20;93.30;;;11.89;84.58;100277.91;4992957;28;20160;-78
2022/04/13 04:16:21;;;;;;;9.88;3.40;;;13.20;93.30;;;11.90;85.01;100284.22;4992491;28;20128;-78
2022/04/13 04:18:50;;;;;;;7.55;3.35;;;13.30;93.30;;;11.90;84.95;100284.22;4993097;28;20054;-78
2022/04/13 04:21:17;;;;;;;7.70;3.22;;;13.20;93.20;;;11.83;85.26;100286.84;4992451;28;20112;-78
2022/04/13 04:23:44;;;;;;;10.05;4.00;;;13.20;93.50;;;11.82;85.93;100292.50;4992902;28;20077;-78
2022/04/13 04:26:12;;;;;;;7.72;3.20;;;13.20;93.60;;;11.77;86.31;100295.84;4992624;28;20039;-78
2022/04/13 04:28:41;;;;;;;9.35;3.20;;;13.20;93.90;;;11.72;86.75;100293.69;4992680;28;20054;-78
2022/04/13 04:31:09;;;;;;;6.53;3.15;;;13.20;94.10;;;11.71;86.89;100292.00;4992285;28;20042;-78
2022/04/13 04:33:37;;;;;;;7.95;3.00;;;13.20;94.30;;;11.61;87.63;100296.09;4992683;28;20069;-78
2022/04/13 04:36:05;;;;;;;8.35;2.80;;;13.10;94.50;;;11.59;87.21;100290.00;4992154;28;20042;-78
2022/04/13 04:38:32;;;;;;;6.22;3.00;;;13.10;94.60;;;11.61;87.08;100296.09;4992576;28;20046;-78
2022/04/13 04:41:00;;;;;;;10.23;3.40;;;13.10;94.50;;;11.61;87.28;100296.94;4991996;28;20117;-78
2022/04/13 04:43:27;;;;;;;7.28;3.10;;;13.10;94.50;;;11.55;87.77;100297.72;4992362;28;20078;-79
2022/04/13 04:45:54;;;;;;;10.20;2.88;;;13.10;94.90;;;11.48;88.02;100297.69;4991908;28;20046;-78
2022/04/13 04:48:21;;;;;;;7.75;2.70;;;13.00;95.00;;;11.47;88.40;100295.16;4992080;28;20129;-78
2022/04/13 04:50:50;;;;;;;12.23;3.42;;;13.00;95.00;;;11.48;88.15;100297.69;4991813;28;20054;-78
2022/04/13 04:53:17;;;;;;;7.88;2.88;;;12.90;95.30;;;11.45;88.08;100303.53;4992071;28;20054;-78
2022/04/13 04:55:45;;;;;;;8.43;3.33;;;12.90;95.40;;;11.45;88.30;100308.13;4992099;28;20125;-78
2022/04/13 04:58:12;;;;;;;7.75;3.15;;;12.90;95.50;;;11.45;88.49;100308.13;4991768;28;20038;-78
2022/04/13 05:00:40;;;;;;;10.18;3.80;;;12.90;95.60;;;11.49;88.40;100309.44;4991742;28;20050;-78
2022/04/13 05:03:08;;;;;;;9.57;3.60;;;12.90;95.90;;;11.51;88.72;100304.63;4992098;28;20085;-78
2022/04/13 05:05:39;;;;;;;11.02;3.88;;;12.90;95.90;;;11.53;88.68;100305.28;4991993;28;20101;-78
2022/04/13 05:08:08;;;;;;;;;;;12.90;96.00;;;11.55;89.11;100314.09;4992169;28;20046;-78
2022/04/13 05:10:36;;;;;;;8.20;3.92;;;13.00;96.20;;;11.50;89.78;100316.59;4991221;28;19922;-78
2022/04/13 05:13:03;;;;;;;12.13;4.18;;;13.00;96.20;;;11.51;89.60;100321.81;4992022;28;20073;-78
2022/04/13 05:15:31;;;;;;;9.20;3.72;;;13.00;96.30;;;11.55;90.03;100314.09;4991678;28;20049;-78
2022/04/13 05:17:58;;;;;;;12.88;4.10;;;13.00;96.50;;;11.58;89.62;100310.97;4991180;28;20057;-77
2022/04/13 05:20:25;;;;;;;8.93;4.05;;;13.00;96.50;;;11.67;90.22;100317.13;4991146;28;20038;-78
2022/04/13 05:22:52;;;;;;;9.38;4.45;;;13.10;96.30;;;11.70;90.08;100323.03;4991461;28;20065;-78
2022/04/13 05:25:21;;;;;;;11.38;4.50;;;13.20;96.60;;;11.82;89.70;100325.22;4991600;28;20042;-78
2022/04/13 05:27:49;;;;;;;10.43;3.45;;;13.20;96.50;;;11.92;89.73;100317.59;4991124;28;20117;-78
2022/04/13 05:30:16;;;;;;;10.35;3.40;;;13.30;96.60;;;12.01;89.62;100329.16;4991012;28;20128;-78
2022/04/13 05:32:48;;;;;;;9.73;3.70;;;13.30;96.90;;;12.06;90.89;100330.25;4991693;28;20100;-78
2022/04/13 05:35:16;;;;;;;7.03;3.90;;;13.40;97.70;;;12.15;90.59;100330.97;4991666;28;20046;-78
2022/04/13 05:37:43;;;;;;;8.45;3.92;;;13.50;97.80;;;12.29;90.60;100334.63;4990680;28;20050;-79
2022/04/13 05:40:11;;;;;;;9.10;3.55;;;13.50;98.00;;;12.38;90.96;100330.69;4991124;28;20128;-78
2022/04/13 05:42:40;;;;;;;10.10;3.60;;;13.60;98.10;;;12.46;90.77;100335.97;4991436;28;20057;-78
2022/04/13 05:45:09;;;;;;;8.95;3.90;;;13.70;99.80;;;12.54;91.59;100345.03;4990810;28;20065;-78
2022/04/13 05:47:37;;;;;;;11.88;3.55;;;13.80;99.80;;;12.59;92.69;100345.28;4990744;28;20039;-78
2022/04/13 05:50:05;;;;;;;8.70;3.50;;;13.80;99.90;;;12.65;92.98;100353.50;4990595;28;20050;-78
2022/04/13 05:52:32;;;;;;;10.52;3.67;;;13.90;99.90;;;12.72;92.98;100364.47;4990935;28;20050;-78
2022/04/13 05:55:00;;;;;;;8.63;3.60;;;14.00;99.90;;;12.81;93.38;100360.53;4991006;28;20053;-78
2022/04/13 05:57:27;;;;;;;10.43;3.78;;;14.00;99.90;;;12.87;92.83;100362.44;4990660;28;20118;-78
2022/04/13 05:59:56;;;;;;;8.38;3.35;;;14.10;99.90;;;12.98;92.30;100363.72;4990388;28;20133;-78
2022/04/13 06:02:23;;;;;;;10.38;3.30;;;14.20;99.90;;;13.08;93.00;100368.81;4989576;28;20552;-78
2022/04/13 06:04:50;;;;;;;9.60;3.42;;;14.30;99.90;;;13.18;92.67;100373.91;4990816;28;20053;-78
2022/04/13 06:07:18;;;;;;;12.20;3.17;;;14.40;99.90;;;13.26;92.50;100371.81;4990548;28;20058;-78
2022/04/13 06:09:45;;;;;;;9.20;3.35;;;14.40;99.90;;;13.34;93.36;100368.06;4990714;28;20097;-78
2022/04/13 06:12:13;;;;;;;12.18;3.80;;;14.60;99.90;;;13.43;92.26;100371.47;4990954;28;20140;-78
2022/04/13 06:14:41;;;;;;;11.10;3.42;;;14.60;99.90;;;13.55;91.92;100368.97;4990980;28;20140;-78
2022/04/13 06:17:09;;;;;;;10.75;3.30;;;14.70;99.90;;;13.67;91.50;100379.09;4990530;28;20534;-78
2022/04/13 06:19:37;;;;;;;7.43;3.67;;;14.80;99.60;;;13.76;92.79;100376.97;4990312;28;20495;-78
2022/04/13 06:22:04;;;;;;;9.07;3.50;;;14.90;99.90;;;13.86;91.98;100387.53;4990602;28;20054;-78
2022/04/13 06:24:31;;;;;;;21.30;4.93;;;15.00;99.60;;;13.97;91.48;100395.09;4990720;28;20128;-78
2022/04/13 06:26:59;;;;;;;13.30;4.68;;;15.10;99.20;;;14.12;90.48;100391.31;4990033;28;20050;-78
2022/04/13 06:29:26;;;;;;;14.65;4.82;;;15.20;97.10;;;14.25;88.87;100400.34;4990382;28;20049;-78
2022/04/13 06:31:53;;;;;;;16.55;5.82;;;15.30;96.10;;;14.37;87.92;100400.53;4990019;28;20130;-78
2022/04/13 06:34:22;;;;;;;17.25;5.55;;;15.30;94.70;;;14.50;87.48;100398.84;4990481;28;20070;-78
2022/04/13 06:36:49;;;;;;;16.23;5.82;;;15.40;94.40;;;14.61;86.57;100403.72;5011908;23;20466;-77
2022/04/13 06:39:16;;;;;;;13.52;5.53;;;15.60;93.60;;;14.72;85.66;100403.06;5009742;28;20049;-77
2022/04/13 06:41:44;;;;;;;13.70;5.47;;;15.60;93.30;;;14.85;86.18;100396.72;5009330;28;20489;-77
2022/04/13 06:44:11;;;;;;;16.95;6.45;;;15.70;94.10;;;14.96;84.97;100403.41;5009811;28;20124;-77
2022/04/13 06:46:38;;;;;;;16.15;5.88;;;15.80;92.80;;;15.06;83.56;100401.06;5002474;28;20050;-77
2022/04/13 06:49:05;;;;;;;16.00;6.57;;;15.90;91.90;;;15.17;82.78;100400.38;4990186;28;20121;-77
2022/04/13 06:51:35;;;;;;;23.75;7.03;;;16.00;91.80;;;15.24;82.06;100406.66;4989875;28;20047;-77
2022/04/13 06:54:02;;;;;;;17.90;6.03;;;16.00;91.50;;;15.34;82.63;100408.09;4990170;28;20050;-77
2022/04/13 06:56:29;;;;;;;19.35;6.82;;;16.10;91.80;;;15.43;80.73;100415.00;4992267;28;20050;-77
2022/04/13 06:58:56;;;;;;;20.27;7.20;;;16.10;90.70;;;15.53;80.49;100420.84;4993832;28;20125;-77
2022/04/13 07:01:24;;;;;;;23.92;7.68;;;16.20;90.00;;;15.60;80.52;100420.81;4993526;28;20077;-77
2022/04/13 07:03:51;;;;;;;25.20;9.13;;;16.30;90.80;;;15.69;79.59;100424.13;4993915;28;20133;-77
2022/04/13 07:06:18;;;;;;;21.20;9.25;;;16.40;89.90;;;15.75;79.00;100417.81;4993401;28;20089;-77
2022/04/13 07:08:47;;;;;;;20.35;9.15;;;16.50;90.00;;;15.85;79.19;100411.81;4993789;28;20468;-77
2022/04/13 07:11:14;;;;;;;22.25;8.80;;;16.50;90.10;;;15.89;79.19;100421.28;4993341;28;20093;-77
2022/04/13 07:13:41;;;;;;;26.30;10.20;;;16.60;90.00;;;15.92;78.41;100418.13;4993718;28;20073;-77
2022/04/13 07:16:08;;;;;;;26.55;9.32;;;16.70;89.60;;;15.95;77.73;100421.22;4993306;28;20080;-77
2022/04/13 07:18:36;;;;;;;20.13;8.93;;;16.60;88.70;;;16.03;77.89;100423.72;4993687;28;20130;-77
2022/04/13 07:21:04;;;;;;;22.80;10.57;;;16.70;88.90;;;16.11;77.59;100422.59;4993381;28;20507;-77
2022/04/13 07:23:31;;;;;;;20.67;9.93;;;16.70;88.80;;;16.21;77.26;100424.84;4993697;28;20050;-77
2022/04/13 07:26:00;;;;;;;21.55;9.55;;;16.90;88.40;;;16.29;76.70;100427.31;4992976;28;20081;-77
2022/04/13 07:28:27;;;;;;;22.63;8.57;;;16.90;88.10;;;16.34;76.36;100429.38;4993558;28;20117;-77
2022/04/13 07:30:55;;;;;;;24.23;9.48;;;16.90;87.10;;;16.37;76.03;100438.03;4993038;28;20585;-77
2022/04/13 07:33:22;;;;;;;22.10;8.85;;;17.00;87.70;;;16.45;76.30;100444.28;4993410;28;20042;-77
2022/04/13 07:35:49;;;;;;;19.15;8.55;;;17.00;88.40;;;16.52;76.48;100445.91;4992956;28;20125;-77
2022/04/13 07:38:16;;;;;;;18.42;9.05;;;17.10;89.10;;;16.61;75.83;100440.97;4993116;28;20561;-77
2022/04/13 07:40:44;;;;;;;21.92;8.57;;;17.20;87.10;;;16.67;75.04;100437.31;4991273;28;20454;-77
2022/04/13 07:43:14;;;;;;;18.35;8.00;;;17.20;86.80;;;16.70;74.78;100441.53;4993248;28;20510;-77
2022/04/13 07:45:41;;;;;;;18.38;7.57;;;17.30;87.40;;;16.75;74.09;100444.41;4993490;28;20078;-77
2022/04/13 07:48:09;;;;;;;18.27;7.43;;;17.40;87.10;;;16.79;74.05;100438.25;4992655;28;20438;-77
2022/04/13 07:50:36;;;;;;;19.83;6.88;;;17.40;86.20;;;16.88;74.06;100440.72;4992800;28;20050;-77
2022/04/13 07:53:03;;;;;;;14.88;6.88;;;17.50;86.80;;;16.94;74.13;100448.88;4993147;28;20081;-77
2022/04/13 07:55:31;;;;;;;14.40;6.78;;;17.50;86.90;;;17.05;74.37;100444.53;4993213;28;20565;-77
2022/04/13 07:57:58;;;;;;;18.83;7.32;;;17.60;87.00;;;17.10;73.60;100452.94;4992579;28;20072;-77
2022/04/13 08:00:27;;;;;;;16.73;7.63;;;17.60;85.90;;;17.14;73.44;100454.16;4992486;28;20034;-77
2022/04/13 08:02:54;;;;;;;15.88;7.63;;;17.60;86.50;;;17.19;73.21;100456.22;4992953;28;20846;-77
2022/04/13 08:05:23;;;;;;;19.75;8.00;;;17.70;86.30;;;17.25;73.57;100460.81;4992902;28;20050;-77
2022/04/13 08:07:50;;;;;;;16.40;7.43;;;17.80;87.00;;;17.30;73.40;100460.94;4991572;28;20117;-77
2022/04/13 08:10:17;;;;;;;17.75;7.97;;;17.80;85.80;;;17.32;73.35;100461.56;4992281;28;20046;-77
2022/04/13 08:12:46;;;;;;;19.83;7.25;;;17.80;86.30;;;17.36;72.05;100467.44;4992729;28;20092;-77
2022/04/13 08:15:15;;;;;;;16.83;7.20;;;17.90;85.30;;;17.40;72.28;100471.41;4992592;28;20050;-77
2022/04/13 08:17:44;;;;;;;16.88;7.70;;;17.90;85.60;;;17.48;73.03;100470.28;4992030;28;20046;-77
2022/04/13 08:20:14;;;;;;;22.00;7.47;;;18.00;86.70;;;17.53;72.32;100468.47;4990626;28;20050;-77
2022/04/13 08:22:42;;;;;;;18.83;7.55;;;18.00;85.50;;;17.59;72.05;100478.59;4992541;28;20153;-77
2022/04/13 08:25:10;;;;;;;19.02;8.85;;;18.10;85.20;;;17.59;71.08;100481.34;4992577;28;20112;-77
2022/04/13 08:27:38;;;;;;;17.30;7.13;;;18.20;84.50;;;17.64;72.14;100477.03;4992110;28;20039;-77
2022/04/13 08:30:07;;;;;;;16.85;8.00;;;18.10;86.10;;;17.69;72.31;100477.19;4992034;28;20048;-77
2022/04/13 08:32:36;;;;;;;19.13;8.13;;;18.20;86.00;;;17.76;72.17;100483.44;4992129;28;20517;-78
2022/04/13 08:35:05;;;;;;;17.73;7.75;;;18.30;85.70;;;17.85;72.46;100492.25;4992390;28;20419;-77
2022/04/13 08:37:34;;;;;;;21.38;9.18;;;18.40;86.10;;;17.82;69.76;100481.66;4991786;28;20057;-77
2022/04/13 08:40:01;;;;;;;17.67;8.40;;;18.40;83.10;;;17.88;71.11;100489.03;4991802;28;20050;-77
2022/04/13 08:42:38;;;;;;;18.13;7.38;;;18.40;84.00;;;17.94;71.18;100482.59;4992147;28;20333;-77
2022/04/13 08:45:16;;;;;;;21.50;7.55;;;18.50;84.90;;;18.04;71.64;100484.78;4992049;28;20516;-77
2022/04/13 08:47:47;;;;;;;20.52;7.50;;;18.60;85.20;;;18.11;72.12;100480.84;4991561;28;20092;-77
2022/04/13 08:50:17;;;;;;;48.97;13.07;;;18.60;85.90;;;18.15;73.34;100486.72;4991550;28;20057;-77
2022/04/13 08:52:52;;;;;;;17.70;6.78;;;18.70;88.70;;;18.16;71.50;100496.66;4991977;28;20093;-77
2022/04/13 08:55:22;;;;;;;18.17;7.43;;;18.70;84.30;;;18.15;71.47;100489.47;4991957;28;20046;-77
2022/04/13 08:57:55;;;;;;;25.90;8.48;;;18.70;84.40;;;18.13;71.49;100488.88;4991379;28;20042;-77
2022/04/13 09:00:26;;;;;;;19.02;7.38;;;18.80;85.50;;;18.12;71.19;100487.19;4991394;28;20455;-77
2022/04/13 09:03:09;;;;;;;;;;;18.70;83.80;;;18.14;71.89;100490.53;4992387;28;20042;-77
2022/04/13 09:05:39;;;;;;;33.88;8.93;;;18.70;85.50;;;18.20;73.36;100500.63;4991907;28;19926;-77
2022/04/13 09:08:13;;;;;;;17.45;7.63;;;18.80;87.20;;;18.20;71.89;100497.88;4991228;28;20046;-77
2022/04/13 09:10:41;;;;;;;37.65;11.35;;;18.80;84.30;;;18.21;71.67;100507.81;4991283;28;20042;-77
2022/04/13 09:13:10;;;;;;;28.60;10.00;;;18.80;84.80;;;18.21;71.15;100504.22;4990242;28;20411;-77
2022/04/13 09:15:40;;;;;;;19.60;7.53;;;18.80;83.80;;;18.21;69.45;100494.03;4990231;28;20058;-77
2022/04/13 09:18:08;;;;;;;15.55;6.43;;;18.90;83.30;;;18.21;70.49;100499.53;4991053;28;20042;-77
2022/04/13 09:20:38;;;;;;;16.10;6.82;;;18.90;83.80;;;18.27;70.20;100497.75;4989945;28;20050;-77
2022/04/13 09:23:06;;;;;;;17.05;6.60;;;18.90;83.30;;;18.33;70.26;100500.44;4991342;28;20060;-77
2022/04/13 09:25:36;;;;;;;14.60;6.47;;;19.00;82.40;;;18.36;70.95;100499.94;4991374;28;20101;-77
2022/04/13 09:28:05;;;;;;;12.30;6.28;;;19.00;85.20;;;18.43;69.31;100499.84;4990792;28;20053;-77
2022/04/13 09:30:34;;;;;;;16.40;6.05;;;19.10;82.50;;;18.41;68.40;100496.50;4990845;28;20046;-77
2022/04/13 09:33:03;;;;;;;17.15;7.18;;;19.10;81.40;;;18.43;68.66;100496.22;4991194;28;20043;-77
2022/04/13 09:35:33;;;;;;;17.08;6.97;;;19.10;81.00;;;18.36;67.60;100491.66;4991287;28;20100;-77
2022/04/13 09:38:07;;;;;;;17.38;6.35;;;19.10;80.50;;;18.40;67.75;100493.97;4990686;28;20058;-77
2022/04/13 09:40:39;;;;;;;18.45;5.90;;;19.10;81.00;;;18.45;67.16;100489.41;4990653;28;20483;-77
2022/04/13 09:43:12;;;;;;;16.98;6.13;;;19.20;81.10;;;18.48;67.17;100499.13;4991225;28;20066;-77
2022/04/13 09:45:43;;;;;;;19.80;6.07;;;19.10;80.70;;;18.49;68.09;100501.63;4990994;28;21006;-77
2022/04/13 09:48:13;;;;;;;14.43;6.60;;;19.20;81.70;;;18.47;68.24;100503.78;4990724;28;20058;-77
2022/04/13 09:50:41;;;;;;;17.80;6.43;;;19.10;81.70;;;18.48;68.39;100497.19;4989135;28;20054;-77
2022/04/13 09:53:12;;;;;;;19.30;6.75;;;19.20;82.10;;;18.50;68.71;100494.22;4990891;28;20094;-77
2022/04/13 09:55:41;;;;;;;17.67;5.20;;;19.20;83.40;;;18.56;68.64;100493.25;4990877;28;20113;-77
2022/04/13 09:58:11;;;;;;;14.95;5.00;;;19.20;82.40;;;18.61;68.88;100498.06;4990092;28;20077;-77
2022/04/13 10:00:41;;;;;;;10.23;4.20;;;19.30;83.20;;;18.63;67.24;100498.66;4990204;28;20566;-77
2022/04/13 10:03:12;;;;;;;13.03;4.23;;;19.30;80.20;;;18.66;67.44;100496.28;4989465;28;20148;-77
2022/04/13 10:05:44;;;;;;;12.83;4.00;;;19.30;81.30;;;18.71;68.00;100501.88;4990866;28;20369;-77
2022/04/13 10:08:14;;;;;;;15.50;5.65;;;19.30;81.70;;;18.79;66.81;100497.09;4990626;28;20141;-77
2022/04/13 10:10:45;;;;;;;13.88;5.70;;;19.40;81.00;;;18.84;67.81;100497.25;4990136;28;20123;-77
2022/04/13 10:13:30;;;;;;;9.70;3.80;;;19.50;81.80;;;18.83;65.64;100490.91;4990649;28;20119;-77
2022/04/13 10:15:58;;;;;;;8.57;3.58;;;19.50;79.20;;;18.89;66.05;100498.22;4990194;28;20066;-77
2022/04/13 10:18:27;;;;;;;12.57;4.38;;;19.50;79.50;;;18.95;65.45;100502.78;4990508;28;20125;-77
2022/04/13 10:20:55;;;;;;;12.80;4.28;;;19.50;79.10;;;18.95;65.96;100507.44;4989934;28;20085;-77